createdAt,value
2022-12-23T00:05:08.596Z,98413.59
2022-12-23T00:10:32.728Z,98404.97
2022-12-23T00:16:14.897Z,98399.61
2022-12-23T00:21:56.468Z,98397.54
2022-12-23T00:27:20.203Z,98393.23
2022-12-23T00:32:43.754Z,98379.86
2022-12-23T00:38:07.860Z,98373.39
2022-12-23T00:43:49.879Z,98367.91
2022-12-23T00:49:46.249Z,98364.19
2022-12-23T00:55:27.156Z,98365.41
2022-12-23T01:01:25.407Z,98368.20
2022-12-23T01:07:06.198Z,98366.55
2022-12-23T01:12:30.907Z,98358.77
2022-12-23T01:18:12.910Z,98354.82
2022-12-23T01:23:37.253Z,98345.89
2022-12-23T01:29:18.243Z,98337.20
2022-12-23T01:34:59.548Z,98329.80
2022-12-23T01:40:23.234Z,98308.61
2022-12-23T01:45:47.607Z,98305.97
2022-12-23T01:51:17.479Z,98308.12
2022-12-23T01:56:41.479Z,98311.57
2022-12-23T02:02:40.483Z,98315.17
2022-12-23T02:08:39.342Z,98314.56
2022-12-23T02:14:43.857Z,98313.11
2022-12-23T02:20:43.891Z,98315.15
2022-12-23T02:26:40.920Z,98316.64
2022-12-23T02:32:25.256Z,98299.98
2022-12-23T02:38:19.065Z,98291.92
2022-12-23T02:44:19.001Z,98299.06
2022-12-23T02:50:00.793Z,98294.30
2022-12-23T02:55:26.205Z,98290.75
2022-12-23T03:00:53.290Z,98294.86
2022-12-23T03:06:19.277Z,98292.27
2022-12-23T03:11:52.346Z,98292.23
2022-12-23T03:17:52.347Z,98279.48
2022-12-23T03:23:55.786Z,98283.05
2022-12-23T03:29:41.140Z,98280.91
2022-12-23T03:35:25.076Z,98271.70
2022-12-23T03:41:11.057Z,98266.48
2022-12-23T03:46:36.303Z,98261.67
2022-12-23T03:52:21.434Z,98260.83
2022-12-23T03:58:14.135Z,98261.05
2022-12-23T04:03:39.238Z,98256.98
2022-12-23T04:09:22.306Z,98247.25
2022-12-23T04:15:09.025Z,98237.04
2022-12-23T04:20:36.554Z,98234.08
2022-12-23T04:25:59.961Z,98230.55
2022-12-23T04:31:24.063Z,98236.85
2022-12-23T04:36:48.366Z,98233.86
2022-12-23T04:42:29.788Z,98231.33
2022-12-23T04:48:10.929Z,98230.36
2022-12-23T04:53:34.747Z,98225.59
2022-12-23T04:59:16.056Z,98225.83
2022-12-23T05:04:39.771Z,98225.38
2022-12-23T05:10:04.251Z,98220.33
2022-12-23T05:15:28.589Z,98221.70
2022-12-23T05:20:52.408Z,98221.86
2022-12-23T05:26:16.168Z,98220.45
2022-12-23T05:31:39.753Z,98214.89
2022-12-23T05:37:20.970Z,98217.45
2022-12-23T05:43:02.506Z,98223.10
2022-12-23T05:48:27.044Z,98222.67
2022-12-23T05:53:50.776Z,98223.51
2022-12-23T05:59:16.128Z,98223.64
2022-12-23T06:04:57.567Z,98219.10
2022-12-23T06:10:38.593Z,98214.80
2022-12-23T06:16:20.228Z,98213.48
2022-12-23T06:22:02.190Z,98211.65
2022-12-23T06:27:25.835Z,98218.30
2022-12-23T06:32:49.719Z,98218.91
2022-12-23T06:38:14.078Z,98223.64
2022-12-23T06:43:55.748Z,98227.55
2022-12-23T06:49:37.592Z,98234.15
2022-12-23T06:55:21.458Z,98236.69
2022-12-23T07:01:02.653Z,98246.70
2022-12-23T07:06:27.638Z,98242.79
2022-12-23T07:11:53.559Z,98239.83
2022-12-23T07:17:17.968Z,98241.52
2022-12-23T07:22:43.956Z,98242.88
2022-12-23T07:28:08.178Z,98248.01
2022-12-23T07:33:35.850Z,98249.29
2022-12-23T07:39:00.946Z,98247.71
2022-12-23T07:44:43.853Z,98251.06
2022-12-23T07:50:27.667Z,98244.67
2022-12-23T07:56:09.573Z,98241.98
2022-12-23T08:01:34.058Z,98246.40
2022-12-23T08:06:58.933Z,98247.63
2022-12-23T08:12:23.835Z,98248.09
2022-12-23T08:17:47.821Z,98249.23
2022-12-23T08:23:29.942Z,98251.89
2022-12-23T08:29:11.801Z,98253.83
2022-12-23T08:34:36.539Z,98251.77
2022-12-23T08:40:18.378Z,98250.62
2022-12-23T08:45:42.393Z,98253.85
2022-12-23T08:51:07.618Z,98258.35
2022-12-23T08:56:34.209Z,98267.34
2022-12-23T09:02:16.563Z,98270.33
2022-12-23T09:07:43.658Z,98262.48
2022-12-23T09:13:09.013Z,98266.30
2022-12-23T09:18:34.660Z,98267.85
2022-12-23T09:24:01.387Z,98266.23
2022-12-23T09:29:44.469Z,98272.85
2022-12-23T09:35:26.409Z,98268.27
2022-12-23T09:41:12.368Z,98272.23
2022-12-23T09:46:36.595Z,98273.69
2022-12-23T09:52:01.385Z,98269.52
2022-12-23T09:57:31.328Z,98272.13
2022-12-23T10:02:58.644Z,98278.76
2022-12-23T10:08:34.136Z,98279.98
2022-12-23T10:13:59.976Z,98276.33
2022-12-23T10:19:26.981Z,98279.73
2022-12-23T10:24:50.662Z,98282.97
2022-12-23T10:30:57.430Z,98283.02
2022-12-23T10:36:43.090Z,98282.61
2022-12-23T10:42:25.905Z,98285.91
2022-12-23T10:48:22.364Z,98288.56
2022-12-23T10:53:54.412Z,98285.17
2022-12-23T10:59:22.429Z,98289.39
2022-12-23T11:04:50.045Z,98292.77
2022-12-23T11:10:33.600Z,98294.33
2022-12-23T11:16:16.384Z,98291.79
2022-12-23T11:21:41.445Z,98283.83
2022-12-23T11:27:08.672Z,98280.84
2022-12-23T11:32:32.453Z,98278.75
2022-12-23T11:37:56.292Z,98274.34
2022-12-23T11:43:38.006Z,98271.14
2022-12-23T11:49:20.593Z,98266.52
2022-12-23T11:54:49.830Z,98266.20
2022-12-23T12:00:38.841Z,98276.39
2022-12-23T12:06:20.096Z,98283.05
2022-12-23T12:11:48.513Z,98276.05
2022-12-23T12:17:42.862Z,98284.29
2022-12-23T12:23:42.068Z,98297.36
2022-12-23T12:29:28.795Z,98301.44
2022-12-23T12:35:13.579Z,98316.13
2022-12-23T12:40:38.486Z,98324.02
2022-12-23T12:46:21.146Z,98323.48
2022-12-23T12:51:46.836Z,98325.20
2022-12-23T12:57:28.768Z,98334.65
2022-12-23T13:03:11.036Z,98332.42
2022-12-23T13:09:13.411Z,98345.29
2022-12-23T13:14:46.855Z,98346.80
2022-12-23T13:20:22.755Z,98345.48
2022-12-23T13:25:47.316Z,98347.73
2022-12-23T13:31:38.020Z,98349.32
2022-12-23T13:37:38.022Z,98346.92
2022-12-23T13:43:23.738Z,98349.59
2022-12-23T13:48:54.468Z,98353.48
2022-12-23T13:55:14.504Z,98350.98
2022-12-23T14:01:21.147Z,98341.92
2022-12-23T14:07:09.032Z,98338.52
2022-12-23T14:12:51.293Z,98336.73
2022-12-23T14:18:32.184Z,98332.33
2022-12-23T14:24:22.705Z,98340.19
2022-12-23T14:29:52.561Z,98343.47
2022-12-23T14:35:42.013Z,98338.20
2022-12-23T14:41:25.318Z,98343.08
2022-12-23T14:46:49.697Z,98343.56
2022-12-23T14:52:44.470Z,98339.78
2022-12-23T14:58:28.380Z,98338.04
2022-12-23T15:03:59.251Z,98334.86
2022-12-23T15:10:02.326Z,98334.20
2022-12-23T15:15:57.419Z,98342.44
2022-12-23T15:21:46.809Z,98351.13
2022-12-23T15:27:30.400Z,98350.48
2022-12-23T15:32:56.371Z,98371.52
2022-12-23T15:38:37.792Z,98367.84
2022-12-23T15:44:23.712Z,98369.89
2022-12-23T15:49:47.534Z,98372.91
2022-12-23T15:55:30.374Z,98362.90
2022-12-23T16:00:54.011Z,98360.61
2022-12-23T16:06:36.410Z,98365.13
2022-12-23T16:12:27.736Z,98358.60
2022-12-23T16:17:51.761Z,98359.78
2022-12-23T16:23:33.461Z,98363.52
2022-12-23T16:29:15.255Z,98363.67
2022-12-23T16:34:38.617Z,98364.03
2022-12-23T16:40:03.645Z,98369.17
2022-12-23T16:45:27.475Z,98365.79
2022-12-23T16:51:15.044Z,98367.20
2022-12-23T16:56:56.805Z,98364.82
2022-12-23T17:02:38.619Z,98346.80
2022-12-23T17:08:19.702Z,98347.23
2022-12-23T17:13:43.332Z,98356.15
2022-12-23T17:19:07.173Z,98358.59
2022-12-23T17:24:31.186Z,98344.41
2022-12-23T17:30:16.383Z,98346.55
2022-12-23T17:35:58.042Z,98335.16
2022-12-23T17:41:40.229Z,98339.63
2022-12-23T17:47:22.581Z,98344.98
2022-12-23T17:52:46.971Z,98349.48
2022-12-23T17:58:28.669Z,98346.15
2022-12-23T18:03:52.712Z,98336.48
2022-12-23T18:09:34.461Z,98325.26
2022-12-23T18:14:58.116Z,98317.35
2022-12-23T18:20:22.535Z,98307.61
2022-12-23T18:25:47.009Z,98296.70
2022-12-23T18:31:15.519Z,98284.79
2022-12-23T18:36:39.614Z,98274.71
2022-12-23T18:42:04.076Z,98263.97
2022-12-23T18:47:28.262Z,98250.69
2022-12-23T18:53:09.654Z,98239.39
2022-12-23T18:58:50.885Z,98236.58
2022-12-23T19:04:32.146Z,98236.05
2022-12-23T19:09:56.641Z,98233.77
2022-12-23T19:15:38.322Z,98227.92
2022-12-23T19:21:19.814Z,98225.39
2022-12-23T19:26:43.363Z,98232.43
2022-12-23T19:32:07.318Z,98239.69
2022-12-23T19:37:31.343Z,98236.30
2022-12-23T19:43:12.587Z,98240.77
2022-12-23T19:48:54.802Z,98235.78
2022-12-23T19:54:35.890Z,98235.83
2022-12-23T20:00:00.285Z,98234.45
2022-12-23T20:05:41.532Z,98251.35
2022-12-23T20:11:26.509Z,98244.66
2022-12-23T20:16:50.496Z,98245.48
2022-12-23T20:22:32.415Z,98233.24
2022-12-23T20:27:56.677Z,98237.04
2022-12-23T20:33:38.508Z,98239.41
2022-12-23T20:39:20.031Z,98223.48
2022-12-23T20:44:43.893Z,98221.19
2022-12-23T20:50:08.181Z,98219.68
2022-12-23T20:55:33.421Z,98199.61
2022-12-23T21:01:14.802Z,98195.23
2022-12-23T21:06:56.003Z,98189.96
2022-12-23T21:12:36.894Z,98186.81
2022-12-23T21:18:00.593Z,98180.41
2022-12-23T21:23:42.466Z,98169.80
2022-12-23T21:29:23.993Z,98165.79
2022-12-23T21:34:48.450Z,98165.53
2022-12-23T21:40:12.884Z,98159.66
2022-12-23T21:45:36.464Z,98158.38
2022-12-23T21:51:17.525Z,98152.20
2022-12-23T21:57:00.203Z,98139.77
2022-12-23T22:02:46.278Z,98130.92
2022-12-23T22:08:27.572Z,98122.14
2022-12-23T22:13:52.401Z,98114.85
2022-12-23T22:19:33.904Z,98103.74
2022-12-23T22:24:57.645Z,98106.21
2022-12-23T22:30:38.825Z,98126.77
2022-12-23T22:36:03.427Z,98126.13
2022-12-23T22:41:44.577Z,98108.73
2022-12-23T22:47:26.044Z,98105.56
2022-12-23T22:52:49.928Z,98105.90
2022-12-23T22:58:15.251Z,98101.02
2022-12-23T23:03:39.365Z,98096.70
2022-12-23T23:09:22.013Z,98096.30
2022-12-23T23:15:03.229Z,98087.25
2022-12-23T23:20:44.231Z,98081.80
2022-12-23T23:26:27.669Z,98088.39
2022-12-23T23:31:51.733Z,98088.95
2022-12-23T23:37:16.083Z,98088.40
2022-12-23T23:42:40.443Z,98081.53
2022-12-23T23:48:22.476Z,98090.35
2022-12-23T23:54:04.444Z,98092.12
2022-12-23T23:59:45.683Z,98094.05
